Armour, South Dakota
Current Conditions -  °F | °C
As of 4:22 AM on Sunday 21 Dec 2014 (Local Time) from KMHE Reporting Station
Haze Haze  
Wind Chill: 24°   Ceiling: 300
Heat Index: 32°   Visibility: 1.7mi
Dew Point: 31°   Wind: 9mph
Humidity: 96%   Direction: 190°S
Pressure: 29.83"   Gusts: NA
Location:  43.32°N, 98.35°W
Report Text: KMHE 211022Z AUTO 19008KT 1 3/4SM BR OVC003 00/M01 A2983 RMK AO2 T00001006
Loading
Personal Weather Stations






























Interactive Weather Map New forecast layout! Learn more

10-Day Weather Forecast

Advertisements
Track Severe Weather on mobile